CheckWX is a tool to help pilots better visualize weather data.  It is not intended as a substitute for an official pre-flight weather briefing.

01:04:19 UTC

EGQL METAR
RAF Leuchars Airport
St. Andrews, United Kingdom
Current

1 hour ago

EGQL 192350Z 28006KT CAVOK 13/11 Q1010 BLU
Observed
Aug-19 @ 23:50 UTC
Wind
  • 280° at 6 KTS
Visibility
10,000+ meters
Flight Rules
VFR
Cloud Levels
  • Clear skies
Temperature
13°C / 55°F
Dewpoint
11°C / 52°F
Humidity
88%
Altimeter
29.82" Hg
Pressure
1009.92 hPa
Previous

2 hours ago

EGQL 192250Z 28008KT 9999 FEW042 BKN120 13/11 Q1009 BLU
Observed
Aug-19 @ 22:50 UTC
Wind
  • 280° at 8 KTS
Visibility
10,000+ meters
Flight Rules
VFR
Cloud Levels
  • Few at 4,200' AGL
  • Broken at 12,000' AGL
Temperature
13°C / 55°F
Dewpoint
11°C / 52°F
Humidity
88%
Altimeter
29.79" Hg
Pressure
1008.92 hPa
Previous

3 hours ago

EGQL 192150Z AUTO 26010KT 9999 BKN041/// 14/11 Q1009
Observed
Aug-19 @ 21:50 UTC
Wind
  • 260° at 10 KTS
Visibility
10,000+ meters
Flight Rules
VFR
Cloud Levels
  • Broken at 4,100' AGL
Temperature
14°C / 57°F
Dewpoint
11°C / 52°F
Humidity
82%
Altimeter
29.79" Hg
Pressure
1008.92 hPa